CDT,Max TemperatureF,Mean TemperatureF,Min TemperatureF,Max Dew PointF,MeanDew PointF,Min DewpointF,Max Humidity, Mean Humidity, Min Humidity, Max Sea Level PressureIn, Mean Sea Level PressureIn, Min Sea Level PressureIn, Max VisibilityMiles, Mean VisibilityMiles, Min VisibilityMiles, Max Wind SpeedMPH, Mean Wind SpeedMPH, Max Gust SpeedMPH,PrecipitationIn, CloudCover, Events, WindDirDegrees
2012-4-1,85,72,59,67,62,58,97,73,48,29.69,29.57,29.47,10,9,4,22,10,30,0.00,0,,185
2012-4-2,85,75,65,63,59,54,81,59,37,29.71,29.61,29.51,10,10,9,21,10,28,0.00,0,,186
2012-4-3,72,66,59,58,55,52,78,70,61,29.89,29.83,29.71,10,9,7,15,6,18,T,2,Rain,328
2012-4-4,65,60,54,54,52,50,86,79,72,29.83,29.76,29.69,10,7,6,16,9,22,0.01,5,Rain,61
2012-4-5,63,54,45,52,45,36,93,66,39,30.06,29.87,29.73,10,8,2,18,9,25,0.01,5,Rain,45
2012-4-6,64,53,41,40,37,34,83,60,36,30.18,30.10,30.03,10,10,10,15,8,21,0.00,0,,105
2012-4-7,62,55,48,52,45,36,83,68,53,30.34,30.17,30.02,10,10,8,15,7,20,0.04,4,Rain,235
2012-4-8,66,52,38,38,33,30,76,52,28,30.40,30.31,30.19,10,10,10,12,3,17,0.00,0,,164
2012-4-9,72,57,41,41,35,27,83,53,22,30.21,30.15,30.08,10,9,2,10,4,21,0.00,1,,332
2012-4-10,65,55,44,31,26,21,44,34,23,30.26,30.19,30.13,10,10,10,15,7,25,0.00,1,,33
2012-4-11,60,50,39,30,24,21,50,38,25,30.35,30.26,30.19,10,10,10,14,7,18,0.00,0,,76
2012-4-12,54,48,42,45,37,27,71,60,49,30.19,30.07,29.94,10,10,5,17,10,24,0.05,7,Rain-Thunderstorm,132
2012-4-13,74,64,53,63,55,43,93,79,64,29.91,29.84,29.80,10,9,7,21,12,33,0.07,6,Rain-Thunderstorm,160
2012-4-14,73,67,60,63,60,58,97,79,61,29.88,29.75,29.55,10,10,7,29,14,40,0.01,5,Thunderstorm,172
2012-4-15,72,62,52,61,52,35,84,58,32,29.64,29.51,29.45,10,10,8,30,18,41,0.04,4,Rain,196
2012-4-16,65,57,48,41,38,36,66,50,34,30.23,30.05,29.65,10,10,8,26,8,40,0.00,2,,293
2012-4-17,71,58,45,46,43,40,82,60,37,30.30,30.23,30.15,10,10,10,18,7,25,0.00,1,,149
2012-4-18,76,64,52,52,48,43,83,61,38,30.14,30.02,29.91,10,10,10,21,10,29,0.00,2,,189
2012-4-19,76,63,50,55,49,44,77,58,38,29.90,29.78,29.66,10,10,10,28,14,40,0.00,3,,207
2012-4-20,62,54,46,43,36,29,80,55,29,30.07,29.98,29.81,10,10,10,21,12,30,0.00,5,,356
2012-4-21,68,52,35,42,38,32,92,64,35,30.07,30.00,29.92,10,10,6,13,4,17,T,0,,230
2012-4-22,59,53,46,40,36,32,66,55,43,30.22,30.11,29.97,10,10,10,23,13,32,0.00,3,,348
2012-4-23,67,53,39,40,36,30,85,56,26,30.23,30.13,29.97,10,10,10,16,5,21,0.00,0,,330
2012-4-24,85,65,45,57,47,36,71,52,32,29.96,29.74,29.58,10,10,10,18,9,24,0.00,0,,206
2012-4-25,92,78,64,58,54,45,73,50,26,29.71,29.57,29.53,10,10,10,18,10,24,0.00,0,,251
2012-4-26,82,72,61,54,49,43,60,47,33,29.95,29.89,29.74,10,10,10,15,8,18,0.00,0,,46
2012-4-27,65,62,58,56,48,44,87,70,52,29.94,29.74,29.61,10,10,4,30,17,44,0.13,4,Rain-Thunderstorm,107
2012-4-28,70,63,55,57,53,52,90,73,55,30.00,29.87,29.68,10,9,2,20,9,25,0.59,5,Rain-Thunderstorm,8
2012-4-29,67,60,53,61,55,52,100,91,81,30.04,29.96,29.90,10,5,1,15,8,22,0.60,8,Rain-Thunderstorm,56
2012-4-30,69,62,55,59,55,53,93,80,66,30.01,29.95,29.87,10,7,2,10,5,24,T,7,,26